createdAt,value
2023-02-11T00:00:31.275Z,73.99
2023-02-11T00:01:36.297Z,73.75
2023-02-11T00:02:39.274Z,73.96
2023-02-11T00:03:42.235Z,74.16
2023-02-11T00:04:45.149Z,73.61
2023-02-11T00:06:01.128Z,73.93
2023-02-11T00:07:04.513Z,74.21
2023-02-11T00:08:07.655Z,74.15
2023-02-11T00:09:11.406Z,74.63
2023-02-11T00:10:14.540Z,75.87
2023-02-11T00:11:20.382Z,75.60
2023-02-11T00:12:23.694Z,75.52
2023-02-11T00:13:27.416Z,75.41
2023-02-11T00:14:30.652Z,75.09
2023-02-11T00:15:33.784Z,74.98
2023-02-11T00:16:36.999Z,74.83
2023-02-11T00:17:40.143Z,74.88
2023-02-11T00:18:43.847Z,74.82
2023-02-11T00:19:50.641Z,74.33
2023-02-11T00:20:54.177Z,74.24
2023-02-11T00:21:57.060Z,74.72
2023-02-11T00:23:00.054Z,75.16
2023-02-11T00:24:03.016Z,75.29
2023-02-11T00:25:06.474Z,75.56
2023-02-11T00:26:17.747Z,75.29
2023-02-11T00:27:20.943Z,74.96
2023-02-11T00:28:24.066Z,74.92
2023-02-11T00:29:27.139Z,75.19
2023-02-11T00:30:30.495Z,74.89
2023-02-11T00:31:35.199Z,75.08
2023-02-11T00:32:38.384Z,74.87
2023-02-11T00:33:42.203Z,75.24
2023-02-11T00:34:45.229Z,75.62
2023-02-11T00:35:48.700Z,75.60
2023-02-11T00:36:52.761Z,75.41
2023-02-11T00:37:56.129Z,75.52
2023-02-11T00:38:59.834Z,75.97
2023-02-11T00:40:06.830Z,76.29
2023-02-11T00:41:10.620Z,76.79
2023-02-11T00:42:15.290Z,76.19
2023-02-11T00:43:18.445Z,76.01
2023-02-11T00:44:21.682Z,76.11
2023-02-11T00:45:24.670Z,76.51
2023-02-11T00:46:28.133Z,76.24
2023-02-11T00:47:31.451Z,76.05
2023-02-11T00:48:34.969Z,76.24
2023-02-11T00:49:40.771Z,76.02
2023-02-11T00:50:44.046Z,75.80
2023-02-11T00:51:46.973Z,75.81
2023-02-11T00:52:49.946Z,75.92
2023-02-11T00:53:53.766Z,75.38
2023-02-11T00:54:56.780Z,75.27
2023-02-11T00:56:01.286Z,75.00
2023-02-11T00:57:04.744Z,74.96
2023-02-11T00:58:07.864Z,75.07
2023-02-11T00:59:10.977Z,74.91
2023-02-11T01:00:15.643Z,74.98
2023-02-11T01:01:18.832Z,75.05
2023-02-11T01:02:22.099Z,75.21
2023-02-11T01:03:26.176Z,75.20
2023-02-11T01:04:29.355Z,75.28
2023-02-11T01:05:32.713Z,74.64
2023-02-11T01:06:35.804Z,74.84
2023-02-11T01:07:38.878Z,75.05
2023-02-11T01:08:42.603Z,75.34
2023-02-11T01:09:45.598Z,75.56
2023-02-11T01:11:01.243Z,75.52
2023-02-11T01:12:04.634Z,75.88
2023-02-11T01:13:07.549Z,75.98
2023-02-11T01:14:10.737Z,76.03
2023-02-11T01:15:16.841Z,76.06
2023-02-11T01:16:20.769Z,75.84
2023-02-11T01:17:24.079Z,75.28
2023-02-11T01:18:27.820Z,75.39
2023-02-11T01:19:30.793Z,75.52
2023-02-11T01:20:33.792Z,75.45
2023-02-11T01:21:36.788Z,75.41
2023-02-11T01:22:39.896Z,75.89
2023-02-11T01:23:43.037Z,76.19
2023-02-11T01:24:45.990Z,76.03
2023-02-11T01:25:49.789Z,75.88
2023-02-11T01:26:53.344Z,76.05
2023-02-11T01:27:56.415Z,75.91
2023-02-11T01:29:01.556Z,75.66
2023-02-11T01:30:07.046Z,75.48
2023-02-11T01:31:10.188Z,76.22
2023-02-11T01:32:13.281Z,76.03
2023-02-11T01:33:16.443Z,76.09
2023-02-11T01:34:19.483Z,76.17
2023-02-11T01:35:22.721Z,75.71
2023-02-11T01:36:25.984Z,75.64
2023-02-11T01:37:29.046Z,75.80
2023-02-11T01:38:33.132Z,75.80
2023-02-11T01:39:36.466Z,75.92
2023-02-11T01:40:39.477Z,75.29
2023-02-11T01:41:42.462Z,75.39
2023-02-11T01:42:45.574Z,75.40
2023-02-11T01:43:50.267Z,75.80
2023-02-11T01:44:54.609Z,75.90
2023-02-11T01:46:22.614Z,75.78
2023-02-11T01:47:25.822Z,76.00
2023-02-11T01:48:36.795Z,76.51
2023-02-11T01:49:44.780Z,76.39
2023-02-11T01:50:51.424Z,76.36
2023-02-11T01:52:06.238Z,76.06
2023-02-11T01:53:29.174Z,75.70
2023-02-11T01:54:59.984Z,75.85
2023-02-11T01:56:22.624Z,75.61
2023-02-11T01:57:30.102Z,74.86
2023-02-11T01:58:37.725Z,74.96
2023-02-11T01:59:50.781Z,74.99
2023-02-11T02:00:54.788Z,75.02
2023-02-11T02:02:01.187Z,75.72
2023-02-11T02:03:20.441Z,75.96
2023-02-11T02:04:31.569Z,75.86
2023-02-11T02:05:44.038Z,75.96
2023-02-11T02:07:03.661Z,75.82
2023-02-11T02:08:26.221Z,75.90
2023-02-11T02:09:34.824Z,75.92
2023-02-11T02:10:42.659Z,76.31
2023-02-11T02:11:45.662Z,75.18
2023-02-11T02:12:48.878Z,74.98
2023-02-11T02:13:52.024Z,74.93
2023-02-11T02:15:22.081Z,75.10
2023-02-11T02:16:36.368Z,74.96
2023-02-11T02:17:55.220Z,74.90
2023-02-11T02:19:31.349Z,75.41
2023-02-11T02:20:40.157Z,74.86
2023-02-11T02:22:17.159Z,76.18
2023-02-11T02:23:36.058Z,77.02
2023-02-11T02:24:57.052Z,75.85
2023-02-11T02:26:36.220Z,75.83
2023-02-11T02:27:45.235Z,75.59
2023-02-11T02:29:06.404Z,75.35
2023-02-11T02:30:48.331Z,75.62
2023-02-11T02:32:10.533Z,75.46
2023-02-11T02:33:25.771Z,75.64
2023-02-11T02:34:48.763Z,75.69
2023-02-11T02:36:15.338Z,75.80
2023-02-11T02:37:39.898Z,74.71
2023-02-11T02:38:53.379Z,74.69
2023-02-11T02:40:00.213Z,74.55
2023-02-11T02:41:32.054Z,74.52
2023-02-11T02:42:36.788Z,74.84
2023-02-11T02:43:46.670Z,75.01
2023-02-11T02:44:52.315Z,74.30
2023-02-11T02:45:55.818Z,74.41
2023-02-11T02:46:59.338Z,74.50
2023-02-11T02:48:02.896Z,74.50
2023-02-11T02:49:13.022Z,74.31
2023-02-11T02:50:20.113Z,74.38
2023-02-11T02:51:56.958Z,74.43
2023-02-11T02:53:17.540Z,74.55
2023-02-11T02:54:57.661Z,73.71
2023-02-11T02:56:33.219Z,74.19
2023-02-11T02:58:02.693Z,73.83
2023-02-11T02:59:14.088Z,74.22
2023-02-11T03:00:49.868Z,73.70
2023-02-11T03:02:18.927Z,73.68
2023-02-11T03:03:30.889Z,73.64
2023-02-11T03:04:54.091Z,73.74
2023-02-11T03:06:18.110Z,73.45
2023-02-11T03:07:33.179Z,73.83
2023-02-11T03:09:09.704Z,73.66
2023-02-11T03:10:19.865Z,73.72
2023-02-11T03:11:24.791Z,73.40
2023-02-11T03:12:32.265Z,73.02
2023-02-11T03:13:38.063Z,72.61
2023-02-11T03:14:42.351Z,72.18
2023-02-11T03:15:49.864Z,72.12
2023-02-11T03:16:57.846Z,72.50
2023-02-11T03:18:04.094Z,73.17
2023-02-11T03:19:14.262Z,73.02
2023-02-11T03:20:21.074Z,72.79
2023-02-11T03:21:25.978Z,72.21
2023-02-11T03:22:43.530Z,71.96
2023-02-11T03:23:56.725Z,72.41
2023-02-11T03:25:02.413Z,72.92
2023-02-11T03:26:14.418Z,72.93
2023-02-11T03:27:23.971Z,73.58
2023-02-11T03:28:35.126Z,73.20
2023-02-11T03:29:51.906Z,73.00
2023-02-11T03:31:13.864Z,73.45
2023-02-11T03:32:30.962Z,73.19
2023-02-11T03:34:09.088Z,72.58
2023-02-11T03:35:46.459Z,72.06
2023-02-11T03:37:13.310Z,71.99
2023-02-11T03:38:31.345Z,72.03
2023-02-11T03:39:43.665Z,71.53
2023-02-11T03:40:47.860Z,72.51
2023-02-11T03:41:53.340Z,72.81
2023-02-11T03:43:05.777Z,73.36
2023-02-11T03:44:11.070Z,73.48
2023-02-11T03:45:19.074Z,73.47
2023-02-11T03:46:31.075Z,72.44
2023-02-11T03:47:37.441Z,72.64
2023-02-11T03:48:45.152Z,72.57
2023-02-11T03:49:50.998Z,72.34
2023-02-11T03:50:55.517Z,72.49
2023-02-11T03:51:59.666Z,72.88
2023-02-11T03:53:03.998Z,72.70
2023-02-11T03:54:12.313Z,72.78
2023-02-11T03:55:21.490Z,72.67
2023-02-11T03:56:29.762Z,72.36
2023-02-11T03:57:34.856Z,72.21
2023-02-11T03:58:38.068Z,72.26
2023-02-11T03:59:59.224Z,71.97
2023-02-11T04:01:03.090Z,72.31
2023-02-11T04:02:06.381Z,73.06
2023-02-11T04:03:10.754Z,72.87
2023-02-11T04:04:14.222Z,72.90
2023-02-11T04:05:17.278Z,72.73
2023-02-11T04:06:20.304Z,73.01
2023-02-11T04:07:23.711Z,72.76
2023-02-11T04:08:26.816Z,72.47
2023-02-11T04:09:30.371Z,72.69
2023-02-11T04:10:33.979Z,72.12
2023-02-11T04:11:37.076Z,72.49
2023-02-11T04:12:40.144Z,72.34
2023-02-11T04:13:43.132Z,71.84
2023-02-11T04:14:46.546Z,71.63
2023-02-11T04:15:49.626Z,72.17
2023-02-11T04:16:52.991Z,72.30
2023-02-11T04:17:56.009Z,72.23
2023-02-11T04:18:59.369Z,71.90
2023-02-11T04:20:02.570Z,71.66
2023-02-11T04:21:06.114Z,71.84
2023-02-11T04:22:09.513Z,72.23
2023-02-11T04:23:12.670Z,72.06
2023-02-11T04:24:15.691Z,72.11
2023-02-11T04:25:18.811Z,72.25
2023-02-11T04:26:21.926Z,72.18
2023-02-11T04:27:25.084Z,72.00
2023-02-11T04:28:29.909Z,71.80
2023-02-11T04:29:33.071Z,71.49
2023-02-11T04:30:36.296Z,71.37
2023-02-11T04:31:39.358Z,71.83
2023-02-11T04:32:42.438Z,71.91
2023-02-11T04:33:45.694Z,72.17
2023-02-11T04:34:49.093Z,71.91
2023-02-11T04:35:52.520Z,71.87
2023-02-11T04:36:55.719Z,72.28
2023-02-11T04:37:58.859Z,72.29
2023-02-11T04:39:02.025Z,72.37
2023-02-11T04:40:05.455Z,72.23
2023-02-11T04:41:08.487Z,72.31
2023-02-11T04:42:11.525Z,72.35
2023-02-11T04:43:14.530Z,72.07
2023-02-11T04:44:17.540Z,72.06
2023-02-11T04:45:20.720Z,72.15
2023-02-11T04:46:23.738Z,72.42
2023-02-11T04:47:26.909Z,72.50
2023-02-11T04:48:30.157Z,72.57
2023-02-11T04:49:33.321Z,72.62
2023-02-11T04:50:36.382Z,72.50
2023-02-11T04:51:39.453Z,72.48
2023-02-11T04:52:42.465Z,72.42
2023-02-11T04:53:45.456Z,72.58
2023-02-11T04:54:48.432Z,73.01
2023-02-11T04:55:52.471Z,72.93
2023-02-11T04:56:55.594Z,73.09
2023-02-11T04:57:58.722Z,72.64
2023-02-11T04:59:02.953Z,72.86
2023-02-11T05:00:06.729Z,73.23
2023-02-11T05:01:15.260Z,73.24
2023-02-11T05:02:18.307Z,73.05
2023-02-11T05:03:21.222Z,73.45
2023-02-11T05:04:24.280Z,73.28
2023-02-11T05:05:27.320Z,73.08
2023-02-11T05:06:30.300Z,73.46
2023-02-11T05:07:33.969Z,73.80
2023-02-11T05:08:37.026Z,73.93
2023-02-11T05:09:40.541Z,73.97
2023-02-11T05:10:47.397Z,73.42
2023-02-11T05:11:50.473Z,73.34
2023-02-11T05:12:55.726Z,73.51
2023-02-11T05:13:59.224Z,73.57
2023-02-11T05:15:02.312Z,73.68
2023-02-11T05:16:05.831Z,73.85
2023-02-11T05:17:09.183Z,73.53
2023-02-11T05:18:12.444Z,73.70
2023-02-11T05:19:15.421Z,73.80
2023-02-11T05:20:18.623Z,73.48
2023-02-11T05:21:21.660Z,73.57
2023-02-11T05:22:24.759Z,73.45
2023-02-11T05:23:28.061Z,73.50
2023-02-11T05:24:32.931Z,73.44
2023-02-11T05:25:36.063Z,73.45
2023-02-11T05:26:38.959Z,73.36
2023-02-11T05:27:42.068Z,73.75
2023-02-11T05:28:45.768Z,73.41
2023-02-11T05:29:49.316Z,73.04
2023-02-11T05:30:52.260Z,73.54
2023-02-11T05:31:55.399Z,73.72
2023-02-11T05:32:58.669Z,73.58
2023-02-11T05:34:04.461Z,73.88
2023-02-11T05:35:08.369Z,74.34
2023-02-11T05:36:13.736Z,73.96
2023-02-11T05:37:17.631Z,73.60
2023-02-11T05:38:20.823Z,73.72
2023-02-11T05:39:23.899Z,73.83
2023-02-11T05:40:26.925Z,73.94
2023-02-11T05:41:30.033Z,73.92
2023-02-11T05:42:33.226Z,74.05
2023-02-11T05:43:36.920Z,73.94
2023-02-11T05:44:40.118Z,74.00
2023-02-11T05:45:43.596Z,74.09
2023-02-11T05:46:46.965Z,73.87
2023-02-11T05:47:50.339Z,74.11
2023-02-11T05:48:53.564Z,74.52
2023-02-11T05:49:56.761Z,74.39
2023-02-11T05:50:59.885Z,74.41
2023-02-11T05:52:02.908Z,74.37
2023-02-11T05:53:07.144Z,74.57
2023-02-11T05:54:10.785Z,74.39
2023-02-11T05:55:14.081Z,74.45
2023-02-11T05:56:17.364Z,75.02
2023-02-11T05:57:20.588Z,74.56
2023-02-11T05:58:23.610Z,74.52
2023-02-11T05:59:26.837Z,74.42
2023-02-11T06:00:29.884Z,74.41
2023-02-11T06:01:32.961Z,74.39
2023-02-11T06:02:36.067Z,74.09
2023-02-11T06:03:39.352Z,74.25
2023-02-11T06:04:42.458Z,74.23
2023-02-11T06:05:46.272Z,73.86
2023-02-11T06:06:49.748Z,73.50
2023-02-11T06:07:53.226Z,73.69
2023-02-11T06:08:56.729Z,73.48
2023-02-11T06:10:00.846Z,73.58
2023-02-11T06:11:04.191Z,74.00
2023-02-11T06:12:07.458Z,74.01
2023-02-11T06:13:10.425Z,74.10
2023-02-11T06:14:14.640Z,74.06
2023-02-11T06:15:17.647Z,74.12
2023-02-11T06:16:20.796Z,74.31
2023-02-11T06:17:23.890Z,74.45
2023-02-11T06:18:27.086Z,73.74
2023-02-11T06:19:31.412Z,73.72
2023-02-11T06:20:34.449Z,73.34
2023-02-11T06:21:43.944Z,73.05
2023-02-11T06:22:47.583Z,72.87
2023-02-11T06:23:50.626Z,72.97
2023-02-11T06:25:01.365Z,72.80
2023-02-11T06:26:07.632Z,72.46
2023-02-11T06:27:10.696Z,72.44
2023-02-11T06:28:13.962Z,72.95
2023-02-11T06:29:17.622Z,73.47
2023-02-11T06:30:20.782Z,73.26
2023-02-11T06:31:23.951Z,73.25
2023-02-11T06:32:45.746Z,73.06
2023-02-11T06:33:50.444Z,73.47
2023-02-11T06:34:53.526Z,73.44
2023-02-11T06:35:56.533Z,73.61
2023-02-11T06:36:59.798Z,73.44
2023-02-11T06:38:02.921Z,72.84
2023-02-11T06:39:06.263Z,72.82
2023-02-11T06:40:10.349Z,73.23
2023-02-11T06:41:15.788Z,73.24
2023-02-11T06:42:18.717Z,72.81
2023-02-11T06:43:21.825Z,72.57
2023-02-11T06:44:25.261Z,71.77
2023-02-11T06:45:28.505Z,71.92
2023-02-11T06:46:31.744Z,71.81
2023-02-11T06:47:35.058Z,72.18
2023-02-11T06:48:38.618Z,72.14
2023-02-11T06:49:41.827Z,71.98
2023-02-11T06:50:44.796Z,71.32
2023-02-11T06:51:47.883Z,71.01
2023-02-11T06:52:50.911Z,70.89
2023-02-11T06:53:53.869Z,71.15
2023-02-11T06:54:56.882Z,71.15
2023-02-11T06:56:07.662Z,70.57
2023-02-11T06:57:10.443Z,70.18
2023-02-11T06:58:13.489Z,70.41
2023-02-11T06:59:18.814Z,70.78
2023-02-11T07:00:21.938Z,70.89
2023-02-11T07:01:26.814Z,70.18
2023-02-11T07:02:30.322Z,69.75
2023-02-11T07:03:36.378Z,69.77
2023-02-11T07:04:39.353Z,69.86
2023-02-11T07:05:45.060Z,69.96
2023-02-11T07:06:48.176Z,69.86
2023-02-11T07:07:51.349Z,69.88
2023-02-11T07:08:55.851Z,68.65
2023-02-11T07:09:58.903Z,68.21
2023-02-11T07:11:02.287Z,69.12
2023-02-11T07:12:05.407Z,69.08
2023-02-11T07:13:08.714Z,69.36
2023-02-11T07:14:13.681Z,69.04
2023-02-11T07:15:16.785Z,68.60
2023-02-11T07:16:20.769Z,68.51
2023-02-11T07:17:24.043Z,67.50
2023-02-11T07:18:27.315Z,67.29
2023-02-11T07:19:30.862Z,66.79
2023-02-11T07:20:34.022Z,67.20
2023-02-11T07:21:37.210Z,67.08
2023-02-11T07:22:40.695Z,67.19
2023-02-11T07:23:44.017Z,66.68
2023-02-11T07:24:47.061Z,64.87
2023-02-11T07:25:50.239Z,63.69
2023-02-11T07:26:54.154Z,63.33
2023-02-11T07:27:57.288Z,63.70
2023-02-11T07:29:00.365Z,63.81
2023-02-11T07:30:07.221Z,62.43
2023-02-11T07:31:19.306Z,63.10
2023-02-11T07:32:22.474Z,62.00
2023-02-11T07:33:25.502Z,62.52
2023-02-11T07:34:28.727Z,62.57
2023-02-11T07:35:31.968Z,62.81
2023-02-11T07:36:35.123Z,62.38
2023-02-11T07:37:38.060Z,61.89
2023-02-11T07:38:41.715Z,62.41
2023-02-11T07:39:44.639Z,61.53
2023-02-11T07:40:47.751Z,60.87
2023-02-11T07:41:50.959Z,61.34
2023-02-11T07:42:53.990Z,62.03
2023-02-11T07:43:57.337Z,61.95
2023-02-11T07:45:00.382Z,60.43
2023-02-11T07:46:12.827Z,59.71
2023-02-11T07:47:16.045Z,60.29
2023-02-11T07:48:19.137Z,60.63
2023-02-11T07:49:22.268Z,60.08
2023-02-11T07:50:25.473Z,60.14
2023-02-11T07:51:31.660Z,60.96
2023-02-11T07:52:34.840Z,61.24
2023-02-11T07:53:38.805Z,62.15
2023-02-11T07:54:41.846Z,62.31
2023-02-11T07:55:44.907Z,61.19
2023-02-11T07:56:47.793Z,61.56
2023-02-11T07:57:51.127Z,61.20
2023-02-11T07:58:55.172Z,61.28
2023-02-11T07:59:58.346Z,60.78
2023-02-11T08:01:06.539Z,61.33
2023-02-11T08:02:09.951Z,62.12
2023-02-11T08:03:13.082Z,62.18
2023-02-11T08:04:16.169Z,62.55
2023-02-11T08:05:19.146Z,62.54
2023-02-11T08:06:24.705Z,61.41
2023-02-11T08:07:30.071Z,61.48
2023-02-11T08:08:33.590Z,61.23
2023-02-11T08:09:36.874Z,61.46
2023-02-11T08:10:40.333Z,60.88
2023-02-11T08:11:44.180Z,60.77
2023-02-11T08:12:47.489Z,61.30
2023-02-11T08:13:50.589Z,61.24
2023-02-11T08:14:53.774Z,61.27
2023-02-11T08:15:57.998Z,61.30
2023-02-11T08:17:01.138Z,61.26
2023-02-11T08:18:04.368Z,61.03
2023-02-11T08:19:13.048Z,60.65
2023-02-11T08:20:16.181Z,61.06
2023-02-11T08:21:20.572Z,61.00
2023-02-11T08:22:23.597Z,61.51
2023-02-11T08:23:26.498Z,62.66
2023-02-11T08:24:29.482Z,62.44
2023-02-11T08:25:33.118Z,61.81
2023-02-11T08:26:36.904Z,61.59
2023-02-11T08:27:40.119Z,61.26
2023-02-11T08:28:44.927Z,61.09
2023-02-11T08:29:48.060Z,60.82
2023-02-11T08:30:51.499Z,60.96
2023-02-11T08:31:54.891Z,61.31
2023-02-11T08:32:58.103Z,61.82
2023-02-11T08:34:02.678Z,62.58
2023-02-11T08:35:09.442Z,62.79
2023-02-11T08:36:20.365Z,63.07
2023-02-11T08:37:23.502Z,63.34
2023-02-11T08:38:27.218Z,62.96
2023-02-11T08:39:30.247Z,63.36
2023-02-11T08:40:33.759Z,63.32
2023-02-11T08:41:36.925Z,62.63
2023-02-11T08:42:39.992Z,61.93
2023-02-11T08:43:44.336Z,63.17
2023-02-11T08:44:47.418Z,61.96
2023-02-11T08:45:50.615Z,63.14
2023-02-11T08:46:54.404Z,63.25
2023-02-11T08:47:57.371Z,63.96
2023-02-11T08:49:00.578Z,62.55
2023-02-11T08:50:04.600Z,62.39
2023-02-11T08:51:14.349Z,62.15
2023-02-11T08:52:17.379Z,61.65
2023-02-11T08:53:20.339Z,62.64
2023-02-11T08:54:23.312Z,62.47
2023-02-11T08:55:26.299Z,62.50
2023-02-11T08:56:31.889Z,61.62
2023-02-11T08:57:35.752Z,61.86
2023-02-11T08:58:39.101Z,61.89
2023-02-11T08:59:42.229Z,62.26
2023-02-11T09:00:45.716Z,63.03
2023-02-11T09:01:49.169Z,61.34
2023-02-11T09:02:52.302Z,60.60
2023-02-11T09:03:56.505Z,60.83
2023-02-11T09:04:59.389Z,59.47
2023-02-11T09:06:06.568Z,59.00
2023-02-11T09:07:10.052Z,58.92
2023-02-11T09:08:14.328Z,58.89
2023-02-11T09:09:17.706Z,58.37
2023-02-11T09:10:20.759Z,57.79
2023-02-11T09:11:30.885Z,58.12
2023-02-11T09:12:33.832Z,57.48
2023-02-11T09:13:37.308Z,57.76
2023-02-11T09:14:41.860Z,58.19
2023-02-11T09:15:47.974Z,57.44
2023-02-11T09:16:52.081Z,57.47
2023-02-11T09:17:55.233Z,56.61
2023-02-11T09:18:59.960Z,55.49
2023-02-11T09:20:03.727Z,55.07
2023-02-11T09:21:09.358Z,54.66
2023-02-11T09:22:12.547Z,54.02
2023-02-11T09:23:18.312Z,53.16
2023-02-11T09:24:21.728Z,52.18
2023-02-11T09:25:25.568Z,53.20
2023-02-11T09:26:31.927Z,51.90
2023-02-11T09:27:34.903Z,53.15
2023-02-11T09:28:37.971Z,52.09
2023-02-11T09:29:41.267Z,51.47
2023-02-11T09:30:44.436Z,52.15
2023-02-11T09:31:47.640Z,50.98
2023-02-11T09:32:50.878Z,49.90
2023-02-11T09:33:56.871Z,49.63
2023-02-11T09:34:59.749Z,50.33
2023-02-11T09:36:04.305Z,48.99
2023-02-11T09:37:07.408Z,48.27
2023-02-11T09:38:10.385Z,48.83
2023-02-11T09:39:17.644Z,48.27
2023-02-11T09:40:21.598Z,48.43
2023-02-11T09:41:24.926Z,48.78
2023-02-11T09:43:01.789Z,49.96
2023-02-11T09:44:10.910Z,51.32
2023-02-11T09:45:22.557Z,49.85
2023-02-11T09:46:28.218Z,50.55
2023-02-11T09:47:40.513Z,49.01
2023-02-11T09:48:46.096Z,48.99
2023-02-11T09:49:53.361Z,49.90
2023-02-11T09:51:00.511Z,49.17
2023-02-11T09:52:13.732Z,49.11
2023-02-11T09:53:25.882Z,49.74
2023-02-11T09:54:34.367Z,48.72
2023-02-11T09:55:43.047Z,48.76
2023-02-11T09:56:46.155Z,49.43
2023-02-11T09:57:49.551Z,48.61
2023-02-11T09:58:55.179Z,49.65
2023-02-11T09:59:58.674Z,49.02
2023-02-11T10:01:08.041Z,49.20
2023-02-11T10:02:27.723Z,48.62
2023-02-11T10:04:06.916Z,49.32
2023-02-11T10:05:41.814Z,49.54
2023-02-11T10:06:50.878Z,49.60
2023-02-11T10:08:16.993Z,49.90
2023-02-11T10:09:47.803Z,48.80
2023-02-11T10:10:57.089Z,48.96
2023-02-11T10:12:11.992Z,49.60
2023-02-11T10:13:51.023Z,49.73
2023-02-11T10:14:53.820Z,49.80
2023-02-11T10:16:05.915Z,50.09
2023-02-11T10:17:32.078Z,49.75
2023-02-11T10:18:35.168Z,50.15
2023-02-11T10:19:53.029Z,50.63
2023-02-11T10:21:20.818Z,50.29
2023-02-11T10:22:33.756Z,51.53
2023-02-11T10:23:41.557Z,50.89
2023-02-11T10:24:58.588Z,49.59
2023-02-11T10:26:01.806Z,49.43
2023-02-11T10:27:19.780Z,49.71
2023-02-11T10:28:29.131Z,50.26
2023-02-11T10:29:44.592Z,49.52
2023-02-11T10:31:05.326Z,49.50
2023-02-11T10:32:24.918Z,48.81
2023-02-11T10:33:48.221Z,48.67
2023-02-11T10:34:53.184Z,48.90
2023-02-11T10:35:56.346Z,48.89
2023-02-11T10:36:59.427Z,48.71
2023-02-11T10:38:02.599Z,49.09
2023-02-11T10:39:26.172Z,50.37
2023-02-11T10:40:31.088Z,50.31
2023-02-11T10:41:38.811Z,49.66
2023-02-11T10:42:44.768Z,50.11
2023-02-11T10:43:47.725Z,50.23
2023-02-11T10:45:04.433Z,50.26
2023-02-11T10:46:18.849Z,50.51
2023-02-11T10:47:25.778Z,49.74
2023-02-11T10:48:51.770Z,51.69
2023-02-11T10:49:55.122Z,49.87
2023-02-11T10:51:14.556Z,49.27
2023-02-11T10:52:26.279Z,47.82
2023-02-11T10:53:29.525Z,48.06
2023-02-11T10:54:32.476Z,46.99
2023-02-11T10:55:36.387Z,47.03
2023-02-11T10:56:46.118Z,46.88
2023-02-11T10:58:01.998Z,47.27
2023-02-11T10:59:14.924Z,46.69
2023-02-11T11:00:23.810Z,48.06
2023-02-11T11:01:53.601Z,47.54
2023-02-11T11:02:59.867Z,46.69
2023-02-11T11:04:03.230Z,46.28
2023-02-11T11:05:19.287Z,45.69
2023-02-11T11:06:33.728Z,44.26
2023-02-11T11:07:37.785Z,43.81
2023-02-11T11:08:52.063Z,43.33
2023-02-11T11:09:59.918Z,43.30
2023-02-11T11:11:07.587Z,44.17
2023-02-11T11:12:31.213Z,43.80
2023-02-11T11:13:37.112Z,43.55
2023-02-11T11:14:40.111Z,41.85
2023-02-11T11:15:43.215Z,41.50
2023-02-11T11:16:54.811Z,40.94
2023-02-11T11:18:22.632Z,39.97
2023-02-11T11:19:28.220Z,38.78
2023-02-11T11:20:36.764Z,38.68
2023-02-11T11:21:49.812Z,39.60
2023-02-11T11:23:07.891Z,38.70
2023-02-11T11:24:29.694Z,38.68
2023-02-11T11:25:32.901Z,38.14
2023-02-11T11:26:43.212Z,37.17
2023-02-11T11:27:50.879Z,38.01
2023-02-11T11:28:59.403Z,35.70
2023-02-11T11:30:03.604Z,35.08
2023-02-11T11:31:15.119Z,35.80
2023-02-11T11:32:26.187Z,36.23
2023-02-11T11:33:34.360Z,37.76
2023-02-11T11:34:48.913Z,38.49
2023-02-11T11:36:10.023Z,38.20
2023-02-11T11:37:13.055Z,38.88
2023-02-11T11:38:16.078Z,38.91
2023-02-11T11:39:24.076Z,39.07
2023-02-11T11:40:32.672Z,38.64
2023-02-11T11:41:35.772Z,39.34
2023-02-11T11:42:40.209Z,39.56
2023-02-11T11:44:01.464Z,40.53
2023-02-11T11:45:16.446Z,40.21
2023-02-11T11:46:25.286Z,39.86
2023-02-11T11:47:50.489Z,40.50
2023-02-11T11:49:04.379Z,41.40
2023-02-11T11:50:35.677Z,40.81
2023-02-11T11:51:42.450Z,40.87
2023-02-11T11:53:20.686Z,41.12
2023-02-11T11:54:26.333Z,41.08
2023-02-11T11:55:39.527Z,40.93
2023-02-11T11:56:57.031Z,39.76
2023-02-11T11:58:00.263Z,39.70
2023-02-11T11:59:13.638Z,40.22
2023-02-11T12:00:37.267Z,38.88
2023-02-11T12:01:46.042Z,39.80
2023-02-11T12:03:23.004Z,38.91
2023-02-11T12:04:31.891Z,39.27
2023-02-11T12:05:52.748Z,40.21
2023-02-11T12:07:12.319Z,40.45
2023-02-11T12:08:54.315Z,40.67
2023-02-11T12:10:15.557Z,40.53
2023-02-11T12:11:57.648Z,40.90
2023-02-11T12:13:19.361Z,40.45
2023-02-11T12:14:41.106Z,41.02
2023-02-11T12:15:53.502Z,40.71
2023-02-11T12:17:31.888Z,41.50
2023-02-11T12:19:03.536Z,42.45
2023-02-11T12:20:28.457Z,41.72
2023-02-11T12:21:34.720Z,41.23
2023-02-11T12:23:18.673Z,41.63
2023-02-11T12:24:52.543Z,41.65
2023-02-11T12:26:01.350Z,42.06
2023-02-11T12:27:28.890Z,41.49
2023-02-11T12:28:59.360Z,41.61
2023-02-11T12:30:26.820Z,40.97
2023-02-11T12:31:30.042Z,40.33
2023-02-11T12:32:48.695Z,39.73
2023-02-11T12:34:13.236Z,41.05
2023-02-11T12:35:21.913Z,40.99
2023-02-11T12:36:43.435Z,40.31
2023-02-11T12:37:56.370Z,40.57
2023-02-11T12:39:26.455Z,39.72
2023-02-11T12:40:50.638Z,39.37
2023-02-11T12:42:23.316Z,40.04
2023-02-11T12:43:39.214Z,39.85
2023-02-11T12:44:54.828Z,39.20
2023-02-11T12:46:01.228Z,39.39
2023-02-11T12:47:10.770Z,38.91
2023-02-11T12:48:49.403Z,38.82
2023-02-11T12:50:08.979Z,38.13
2023-02-11T12:51:42.503Z,37.78
2023-02-11T12:52:57.780Z,38.51
2023-02-11T12:54:06.788Z,38.58
2023-02-11T12:55:25.791Z,38.70
2023-02-11T12:56:34.846Z,37.66
2023-02-11T12:57:41.154Z,37.70
2023-02-11T12:58:47.002Z,37.61
2023-02-11T13:00:25.396Z,38.23
2023-02-11T13:01:41.461Z,38.01
2023-02-11T13:03:00.475Z,38.05
2023-02-11T13:04:09.880Z,37.63
2023-02-11T13:05:20.657Z,37.25
2023-02-11T13:06:49.964Z,36.42
2023-02-11T13:07:59.274Z,36.63
2023-02-11T13:09:06.356Z,36.53
2023-02-11T13:10:27.377Z,36.59
2023-02-11T13:11:38.162Z,36.67
2023-02-11T13:13:04.722Z,37.00
2023-02-11T13:14:22.925Z,37.10
2023-02-11T13:15:27.119Z,37.03
2023-02-11T13:16:43.030Z,36.75
2023-02-11T13:18:01.326Z,37.97
2023-02-11T13:19:30.322Z,38.30
2023-02-11T13:20:52.803Z,38.25
2023-02-11T13:22:08.269Z,37.52
2023-02-11T13:23:25.143Z,37.59
2023-02-11T13:24:52.509Z,37.72
2023-02-11T13:26:23.229Z,38.25
2023-02-11T13:27:44.738Z,38.61
2023-02-11T13:29:13.822Z,39.37
2023-02-11T13:30:34.946Z,39.65
2023-02-11T13:31:38.557Z,39.85
2023-02-11T13:33:04.065Z,39.98
2023-02-11T13:34:46.524Z,39.78
2023-02-11T13:36:09.483Z,39.17
2023-02-11T13:37:34.947Z,39.93
2023-02-11T13:38:39.620Z,39.59
2023-02-11T13:39:43.920Z,39.73
2023-02-11T13:41:04.215Z,39.74
2023-02-11T13:42:19.202Z,39.42
2023-02-11T13:43:25.547Z,40.16
2023-02-11T13:44:29.373Z,40.29
2023-02-11T13:45:46.012Z,39.99
2023-02-11T13:47:07.740Z,40.41
2023-02-11T13:48:33.498Z,40.54
2023-02-11T13:49:42.945Z,40.77
2023-02-11T13:50:53.819Z,41.41
2023-02-11T13:51:58.382Z,41.17
2023-02-11T13:53:04.063Z,41.27
2023-02-11T13:54:10.338Z,41.19
2023-02-11T13:55:14.339Z,40.53
2023-02-11T13:56:46.496Z,40.60
2023-02-11T13:58:08.511Z,40.75
2023-02-11T13:59:33.699Z,40.59
2023-02-11T14:00:39.634Z,41.15
2023-02-11T14:02:25.749Z,41.01
2023-02-11T14:03:57.380Z,40.44
2023-02-11T14:05:23.122Z,40.50
2023-02-11T14:07:07.356Z,41.07
2023-02-11T14:08:29.316Z,40.30
2023-02-11T14:09:38.759Z,39.83
2023-02-11T14:10:43.372Z,39.93
2023-02-11T14:12:38.239Z,39.16
2023-02-11T14:13:47.662Z,39.46
2023-02-11T14:15:23.547Z,39.60
2023-02-11T14:16:38.059Z,39.80
2023-02-11T14:17:42.774Z,39.90
2023-02-11T14:18:45.863Z,40.04
2023-02-11T14:19:51.015Z,39.66
2023-02-11T14:21:16.719Z,40.54
2023-02-11T14:22:44.867Z,40.33
2023-02-11T14:23:48.103Z,40.07
2023-02-11T14:24:57.366Z,39.58
2023-02-11T14:26:22.864Z,40.08
2023-02-11T14:29:28.110Z,40.31
2023-02-11T14:30:43.192Z,41.40
2023-02-11T14:32:14.767Z,41.52
2023-02-11T14:33:52.863Z,41.46
2023-02-11T14:35:32.601Z,40.78
2023-02-11T14:36:56.139Z,41.94
2023-02-11T14:38:29.702Z,41.76
2023-02-11T14:40:00.337Z,41.80
2023-02-11T14:41:04.184Z,42.43
2023-02-11T14:42:20.589Z,42.05
2023-02-11T14:43:29.647Z,43.02
2023-02-11T14:44:34.801Z,42.74
2023-02-11T14:45:39.075Z,41.82
2023-02-11T14:46:52.770Z,41.71
2023-02-11T14:48:02.129Z,41.76
2023-02-11T14:49:06.450Z,41.81
2023-02-11T14:50:33.096Z,42.27
2023-02-11T14:51:41.166Z,42.86
2023-02-11T14:52:45.809Z,42.90
2023-02-11T14:54:11.167Z,43.41